Main page
METAR-TAF:

METAR-TAF

Airports :

Istanbul Atatürk Airport

Istanbul Atatürk, Turkey

latitude: 40-58N, longitude: 028-49E, elevation: 48 m

Current weather observation

The report was made 52 minutes ago, at 00:50 UTC
Wind 19 kt from the Northeast with gusts up to 31 kt
Temperature 8°C
Humidity 66%
Pressure 1025 hPa
Visibility 10 km or more
Few clouds at a height of 3000 ft

METAR: LTBA 070050Z 05019G31KT 9999 FEW030 08/02 Q1025 NOSIG RMK RWY17L 05019G30KT 020V080 RWY05 06020G30KT RWY23 06019G30KT

Time: 04:42 (01:42 UTC)

Forecast

The report was made 3 hours and 2 minutes ago, at 22:40 UTC
Forecast valid from 07 at 00 UTC to 08 at 06 UTC
Wind 25 kt from the Northeast with gusts up to 35 kt
Visibility 10 km or more
no clouds below 1500 m and no cumulonimbus
Becoming
from 08 at 00 UTC to 08 at 04 UTC
Scattered clouds at a height of 3500 ft

TAF: LTBA 062240Z 0700/0806 05025G35KT CAVOK BECMG 0800/0804 SCT035

Weather observations and forecasts of more than 4000 airports (METAR and TAF reports).

The available stations are represented by yellow and red dots on the map.

Hover mouse over dot to see the name of the station.

Then click to see weather observations and forecasts.

To change the map : click on the green buttons with a black cross to zoom in, on the green button with a dash to zoom out, or on the green arrows for adjacent maps.


METAR-TAF: